Accueil
METAR-TAF:

METAR-TAF

Aéroports :

Aéroport de Žilina

Žilina, Slovaquie

latitude: 49-14N, longitude: 018-36-49E, altitude: 312 m

Observation

Le bulletin a été fait il y a 17 minutes, à 14:30 UTC
Vent 6 kt de ouest/sud-ouest, variant entre sud/sud-ouest et ouest
Température 1°C
Humidité 75%
Pression 1018 hPa
Visibilité 10 km ou plus
Nuages fragmentés à une hauteur de 1700 ft

METAR: LZZI 271430Z 24006KT 200V280 9999 BKN017 01/M03 Q1018

Heure: 15:47 (14:47 UTC)

Prévision

Le bulletin a été fait il y a 47 minutes, à 14:00 UTC
Prévision valable du 27 à 15 UTC au 28 à 00 UTC
Vent 10 kt de sud-ouest
Visibilité 10 km ou plus
Nuages fragmentés à une hauteur de 1500 ft
Temporairement
du 27 à 16 UTC au 28 à 00 UTC
Visibilité: 2500 m
Nuages fragmentés à une hauteur de 700 ft
Ciel couvert à une hauteur de 1300 ft
neige

TAF: LZZI 271400Z 2715/2800 22010KT 9999 BKN015 TEMPO 2716/2800 2500 SN BKN007 OVC013

Observations et prévisions météorologiques de plus de 4000 aéroports (messages METAR et TAF).

Les stations disponibles sont représentées par des disques jaunes et rouges sur la carte.

Passer la souris dessus pour voir le nom de la station.

Cliquer dessus pour voir les observations et prévisions météorologiques.

Pour changer de carte: cliquez sur les boutons verts avec une croix noire pour zoomer, sur le bouton vert avec un tiret pour effectuer un zoom arrière, ou sur les flèches vertes pour les cartes adjacentes.


METAR-TAF: